PWSweather.com
Personal Weather Stations
Station Observations
WODONGA
Wodonga, WodongaAU 3690

WodongaWodongaAU 3690

Lat: -36.121, Lon: 146.87

Elevation: 541

Station Type: Weather Station

http://www.wodongaweather.net

High Low Average
Temperature 93.0°F33.9°F 49.8°F9.9°F 71.2°F21.8°F
Dew Point 56.4°F13.6°F 41.0°F5.0°F 46.6°F8.1°F
Winds 12.0 mph NW19.3 mph NW Calm Calm 3.1 mph 5.0 mph
Wind Gusts 19.7 mph31.7 mph -- 4.8 mph7.7 mph
Humidity 73% 19% 46%
Pressure 29.91 in1012.90 in 29.55 in1000.70 in -
Precipitation 0.00 in0.00 in - -
Hour Temp Dew Point Humidity Winds Wind Gusts Pressure Precip Precip Rate Daily Precip Total
12:00 AM 57.2°F14.0°C 43.5°F6.4°C 60% 0.1 mph S0.2 kmh S 0.7 mph1.1 kmh 29.89 in1012.2 mb 0.00 in0.0 mm 0.00 in/hr0.0 mm/hr 0.00 in0.0 mm
12:05 AM 57.2°F14.0°C 43.5°F6.4°C 60% Calm Calm -- 29.89 in1012.2 mb 0.00 in0.0 mm 0.00 in/hr0.0 mm/hr 0.00 in0.0 mm
12:10 AM 57.4°F14.1°C 43.6°F6.4°C 60% Calm Calm -- 29.89 in1012.2 mb 0.00 in0.0 mm 0.00 in/hr0.0 mm/hr 0.00 in0.0 mm
12:15 AM 57.0°F13.9°C 43.3°F6.3°C 60% Calm Calm -- 29.89 in1012.2 mb 0.00 in0.0 mm 0.00 in/hr0.0 mm/hr 0.00 in0.0 mm
12:20 AM 57.0°F13.9°C 43.3°F6.3°C 60% Calm Calm -- 29.89 in1012.2 mb 0.00 in0.0 mm 0.00 in/hr0.0 mm/hr 0.00 in0.0 mm
12:25 AM 57.0°F13.9°C 43.7°F6.5°C 61% Calm Calm 0.7 mph1.1 kmh 29.89 in1012.2 mb 0.00 in0.0 mm 0.00 in/hr0.0 mm/hr 0.00 in0.0 mm
12:30 AM 56.8°F13.8°C 43.5°F6.4°C 61% 0.4 mph S0.6 kmh S 0.7 mph1.1 kmh 29.89 in1012.2 mb 0.00 in0.0 mm 0.00 in/hr0.0 mm/hr 0.00 in0.0 mm
12:35 AM 56.8°F13.8°C 43.5°F6.4°C 61% 0.5 mph S0.8 kmh S 0.7 mph1.1 kmh 29.88 in1011.9 mb 0.00 in0.0 mm 0.00 in/hr0.0 mm/hr 0.00 in0.0 mm
12:40 AM 56.8°F13.8°C 43.5°F6.4°C 61% 0.6 mph S1.0 kmh S 1.6 mph2.6 kmh 29.89 in1012.2 mb 0.00 in0.0 mm 0.00 in/hr0.0 mm/hr 0.00 in0.0 mm
12:45 AM 56.5°F13.6°C 43.2°F6.2°C 61% 1.1 mph S1.8 kmh S 1.6 mph2.6 kmh 29.88 in1011.9 mb 0.00 in0.0 mm 0.00 in/hr0.0 mm/hr 0.00 in0.0 mm
12:50 AM 56.5°F13.6°C 43.2°F6.2°C 61% 1.4 mph S2.3 kmh S 1.6 mph2.6 kmh 29.88 in1011.9 mb 0.00 in0.0 mm 0.00 in/hr0.0 mm/hr 0.00 in0.0 mm
12:55 AM 55.9°F13.3°C 42.7°F5.9°C 61% 1.2 mph S1.9 kmh S 1.6 mph2.6 kmh 29.88 in1011.9 mb 0.00 in0.0 mm 0.00 in/hr0.0 mm/hr 0.00 in0.0 mm
01:00 AM 56.1°F13.4°C 42.9°F6.1°C 61% 0.5 mph S0.8 kmh S 1.6 mph2.6 kmh 29.88 in1011.9 mb 0.00 in0.0 mm 0.00 in/hr0.0 mm/hr 0.00 in0.0 mm
01:05 AM 55.9°F13.3°C 42.7°F5.9°C 61% 0.1 mph S0.2 kmh S 0.7 mph1.1 kmh 29.88 in1011.9 mb 0.00 in0.0 mm 0.00 in/hr0.0 mm/hr 0.00 in0.0 mm
01:10 AM 55.8°F13.2°C 42.9°F6.1°C 62% 0.3 mph SE0.5 kmh SE 1.6 mph2.6 kmh 29.88 in1011.9 mb 0.00 in0.0 mm 0.00 in/hr0.0 mm/hr 0.00 in0.0 mm
01:15 AM 55.4°F13.0°C 42.6°F5.9°C 62% 0.4 mph SE0.6 kmh SE 1.6 mph2.6 kmh 29.88 in1011.9 mb 0.00 in0.0 mm 0.00 in/hr0.0 mm/hr 0.00 in0.0 mm
01:20 AM 55.0°F12.8°C 42.3°F5.7°C 62% 0.4 mph S0.6 kmh S 1.6 mph2.6 kmh 29.88 in1011.9 mb 0.00 in0.0 mm 0.00 in/hr0.0 mm/hr 0.00 in0.0 mm
01:25 AM 54.9°F12.7°C 42.1°F5.6°C 62% 0.4 mph S0.6 kmh S 1.6 mph2.6 kmh 29.88 in1011.9 mb 0.00 in0.0 mm 0.00 in/hr0.0 mm/hr 0.00 in0.0 mm
01:30 AM 54.7°F12.6°C 42.3°F5.7°C 63% 0.9 mph S1.4 kmh S 1.6 mph2.6 kmh 29.88 in1011.9 mb 0.00 in0.0 mm 0.00 in/hr0.0 mm/hr 0.00 in0.0 mm
01:35 AM 54.9°F12.7°C 42.9°F6.1°C 64% 1.4 mph S2.3 kmh S 1.6 mph2.6 kmh 29.88 in1011.9 mb 0.00 in0.0 mm 0.00 in/hr0.0 mm/hr 0.00 in0.0 mm
01:40 AM 54.9°F12.7°C 42.9°F6.1°C 64% 1.3 mph S2.1 kmh S 1.6 mph2.6 kmh 29.87 in1011.5 mb 0.00 in0.0 mm 0.00 in/hr0.0 mm/hr 0.00 in0.0 mm
01:45 AM 54.7°F12.6°C 42.8°F6.0°C 64% 1.2 mph S1.9 kmh S 1.6 mph2.6 kmh 29.87 in1011.5 mb 0.00 in0.0 mm 0.00 in/hr0.0 mm/hr 0.00 in0.0 mm
01:50 AM 54.5°F12.5°C 43.0°F6.1°C 65% 1.1 mph S1.8 kmh S 2.2 mph3.5 kmh 29.87 in1011.5 mb 0.00 in0.0 mm 0.00 in/hr0.0 mm/hr 0.00 in0.0 mm
01:55 AM 54.3°F12.4°C 42.8°F6.0°C 65% 1.7 mph SSE2.7 kmh SSE 3.1 mph5.0 kmh 29.88 in1011.9 mb 0.00 in0.0 mm 0.00 in/hr0.0 mm/hr 0.00 in0.0 mm
02:00 AM 54.1°F12.3°C 42.6°F5.9°C 65% 2.3 mph S3.7 kmh S 3.1 mph5.0 kmh 29.86 in1011.2 mb 0.00 in0.0 mm 0.00 in/hr0.0 mm/hr 0.00 in0.0 mm
02:05 AM 53.8°F12.1°C 42.3°F5.7°C 65% 2.4 mph S3.9 kmh S 3.1 mph5.0 kmh 29.86 in1011.2 mb 0.00 in0.0 mm 0.00 in/hr0.0 mm/hr 0.00 in0.0 mm
02:10 AM 53.6°F12.0°C 42.5°F5.8°C 66% 2.8 mph S4.5 kmh S 3.1 mph5.0 kmh 29.87 in1011.5 mb 0.00 in0.0 mm 0.00 in/hr0.0 mm/hr 0.00 in0.0 mm
02:15 AM 53.4°F11.9°C 42.7°F5.9°C 67% 2.6 mph S4.2 kmh S 3.1 mph5.0 kmh 29.87 in1011.5 mb 0.00 in0.0 mm 0.00 in/hr0.0 mm/hr 0.00 in0.0 mm
02:20 AM 53.6°F12.0°C 42.9°F6.1°C 67% 1.9 mph S3.1 kmh S 2.2 mph3.5 kmh 29.87 in1011.5 mb 0.00 in0.0 mm 0.00 in/hr0.0 mm/hr 0.00 in0.0 mm
02:25 AM 53.6°F12.0°C 42.5°F5.8°C 66% 2.2 mph S3.5 kmh S 3.1 mph5.0 kmh 29.87 in1011.5 mb 0.00 in0.0 mm 0.00 in/hr0.0 mm/hr 0.00 in0.0 mm
02:30 AM 53.4°F11.9°C 42.4°F5.8°C 66% 2.2 mph S3.5 kmh S 3.1 mph5.0 kmh 29.87 in1011.5 mb 0.00 in0.0 mm 0.00 in/hr0.0 mm/hr 0.00 in0.0 mm
02:35 AM 53.2°F11.8°C 42.2°F5.7°C 66% 1.6 mph S2.6 kmh S 3.1 mph5.0 kmh 29.86 in1011.2 mb 0.00 in0.0 mm 0.00 in/hr0.0 mm/hr 0.00 in0.0 mm
02:40 AM 52.9°F11.6°C 41.8°F5.4°C 66% 0.9 mph SSE1.4 kmh SSE 1.6 mph2.6 kmh 29.87 in1011.5 mb 0.00 in0.0 mm 0.00 in/hr0.0 mm/hr 0.00 in0.0 mm
02:45 AM 53.2°F11.8°C 42.6°F5.9°C 67% 0.4 mph SSE0.6 kmh SSE 1.6 mph2.6 kmh 29.86 in1011.2 mb 0.00 in0.0 mm 0.00 in/hr0.0 mm/hr 0.00 in0.0 mm
02:50 AM 53.2°F11.8°C 42.6°F5.9°C 67% 0.1 mph SE0.2 kmh SE 0.7 mph1.1 kmh 29.86 in1011.2 mb 0.00 in0.0 mm 0.00 in/hr0.0 mm/hr 0.00 in0.0 mm
02:55 AM 52.9°F11.6°C 42.2°F5.7°C 67% 0.2 mph SW0.3 kmh SW 0.7 mph1.1 kmh 29.86 in1011.2 mb 0.00 in0.0 mm 0.00 in/hr0.0 mm/hr 0.00 in0.0 mm
03:00 AM 52.7°F11.5°C 42.1°F5.6°C 67% 0.5 mph SSW0.8 kmh SSW 1.6 mph2.6 kmh 29.87 in1011.5 mb 0.00 in0.0 mm 0.00 in/hr0.0 mm/hr 0.00 in0.0 mm
03:05 AM 52.9°F11.6°C 42.6°F5.9°C 68% 0.3 mph SSW0.5 kmh SSW 1.6 mph2.6 kmh 29.87 in1011.5 mb 0.00 in0.0 mm 0.00 in/hr0.0 mm/hr 0.00 in0.0 mm
03:10 AM 52.9°F11.6°C 42.6°F5.9°C 68% Calm Calm -- 29.87 in1011.5 mb 0.00 in0.0 mm 0.00 in/hr0.0 mm/hr 0.00 in0.0 mm
03:15 AM 52.7°F11.5°C 42.4°F5.8°C 68% 0.1 mph S0.2 kmh S 0.7 mph1.1 kmh 29.87 in1011.5 mb 0.00 in0.0 mm 0.00 in/hr0.0 mm/hr 0.00 in0.0 mm
03:20 AM 52.5°F11.4°C 42.3°F5.7°C 68% 0.5 mph S0.8 kmh S 1.6 mph2.6 kmh 29.86 in1011.2 mb 0.00 in0.0 mm 0.00 in/hr0.0 mm/hr 0.00 in0.0 mm
03:25 AM 52.5°F11.4°C 42.3°F5.7°C 68% 0.7 mph S1.1 kmh S 1.6 mph2.6 kmh 29.86 in1011.2 mb 0.00 in0.0 mm 0.00 in/hr0.0 mm/hr 0.00 in0.0 mm
03:30 AM 52.3°F11.3°C 42.5°F5.8°C 69% 1.0 mph S1.6 kmh S 2.2 mph3.5 kmh 29.86 in1011.2 mb 0.00 in0.0 mm 0.00 in/hr0.0 mm/hr 0.00 in0.0 mm
03:35 AM 51.8°F11.0°C 42.0°F5.6°C 69% 1.6 mph S2.6 kmh S 2.2 mph3.5 kmh 29.87 in1011.5 mb 0.00 in0.0 mm 0.00 in/hr0.0 mm/hr 0.00 in0.0 mm
03:40 AM 51.6°F10.9°C 41.8°F5.4°C 69% 1.6 mph S2.6 kmh S 2.2 mph3.5 kmh 29.86 in1011.2 mb 0.00 in0.0 mm 0.00 in/hr0.0 mm/hr 0.00 in0.0 mm
03:45 AM 51.1°F10.6°C 41.3°F5.2°C 69% 1.4 mph S2.3 kmh S 2.2 mph3.5 kmh 29.86 in1011.2 mb 0.00 in0.0 mm 0.00 in/hr0.0 mm/hr 0.00 in0.0 mm
03:50 AM 50.9°F10.5°C 41.5°F5.3°C 70% 1.7 mph S2.7 kmh S 2.2 mph3.5 kmh 29.86 in1011.2 mb 0.00 in0.0 mm 0.00 in/hr0.0 mm/hr 0.00 in0.0 mm
03:55 AM 50.9°F10.5°C 41.5°F5.3°C 70% 1.4 mph S2.3 kmh S 2.2 mph3.5 kmh 29.87 in1011.5 mb 0.00 in0.0 mm 0.00 in/hr0.0 mm/hr 0.00 in0.0 mm
04:00 AM 50.9°F10.5°C 41.5°F5.3°C 70% 1.0 mph S1.6 kmh S 1.6 mph2.6 kmh 29.86 in1011.2 mb 0.00 in0.0 mm 0.00 in/hr0.0 mm/hr 0.00 in0.0 mm
04:05 AM 51.1°F10.6°C 41.6°F5.3°C 70% 0.8 mph S1.3 kmh S 1.6 mph2.6 kmh 29.87 in1011.5 mb 0.00 in0.0 mm 0.00 in/hr0.0 mm/hr 0.00 in0.0 mm
04:10 AM 51.3°F10.7°C 41.8°F5.4°C 70% 0.5 mph SSE0.8 kmh SSE 0.7 mph1.1 kmh 29.87 in1011.5 mb 0.00 in0.0 mm 0.00 in/hr0.0 mm/hr 0.00 in0.0 mm
04:15 AM 51.1°F10.6°C 41.6°F5.3°C 70% 0.2 mph SE0.3 kmh SE 0.7 mph1.1 kmh 29.87 in1011.5 mb 0.00 in0.0 mm 0.00 in/hr0.0 mm/hr 0.00 in0.0 mm
04:20 AM 51.1°F10.6°C 41.6°F5.3°C 70% 0.4 mph SE0.6 kmh SE 1.6 mph2.6 kmh 29.87 in1011.5 mb 0.00 in0.0 mm 0.00 in/hr0.0 mm/hr 0.00 in0.0 mm
04:25 AM 51.3°F10.7°C 41.8°F5.4°C 70% 0.4 mph SSE0.6 kmh SSE 1.6 mph2.6 kmh 29.87 in1011.5 mb 0.00 in0.0 mm 0.00 in/hr0.0 mm/hr 0.00 in0.0 mm
04:30 AM 51.1°F10.6°C 41.6°F5.3°C 70% 0.2 mph SW0.3 kmh SW 0.7 mph1.1 kmh 29.88 in1011.9 mb 0.00 in0.0 mm 0.00 in/hr0.0 mm/hr 0.00 in0.0 mm
04:35 AM 50.7°F10.4°C 41.3°F5.2°C 70% 0.5 mph S0.8 kmh S 1.6 mph2.6 kmh 29.88 in1011.9 mb 0.00 in0.0 mm 0.00 in/hr0.0 mm/hr 0.00 in0.0 mm
04:40 AM 50.7°F10.4°C 41.3°F5.2°C 70% 0.7 mph S1.1 kmh S 1.6 mph2.6 kmh 29.88 in1011.9 mb 0.00 in0.0 mm 0.00 in/hr0.0 mm/hr 0.00 in0.0 mm
04:45 AM 50.7°F10.4°C 41.3°F5.2°C 70% 0.3 mph S0.5 kmh S 1.6 mph2.6 kmh 29.88 in1011.9 mb 0.00 in0.0 mm 0.00 in/hr0.0 mm/hr 0.00 in0.0 mm
04:50 AM 50.5°F10.3°C 41.5°F5.3°C 71% Calm Calm -- 29.88 in1011.9 mb 0.00 in0.0 mm 0.00 in/hr0.0 mm/hr 0.00 in0.0 mm
04:55 AM 50.4°F10.2°C 41.3°F5.2°C 71% 0.2 mph S0.3 kmh S 0.7 mph1.1 kmh 29.88 in1011.9 mb 0.00 in0.0 mm 0.00 in/hr0.0 mm/hr 0.00 in0.0 mm
05:00 AM 50.4°F10.2°C 41.3°F5.2°C 71% 0.3 mph S0.5 kmh S 0.7 mph1.1 kmh 29.88 in1011.9 mb 0.00 in0.0 mm 0.00 in/hr0.0 mm/hr 0.00 in0.0 mm
05:05 AM 50.0°F10.0°C 41.0°F5.0°C 71% 0.4 mph S0.6 kmh S 1.6 mph2.6 kmh 29.88 in1011.9 mb 0.00 in0.0 mm 0.00 in/hr0.0 mm/hr 0.00 in0.0 mm
05:10 AM 50.0°F10.0°C 41.3°F5.2°C 72% 0.5 mph S0.8 kmh S 1.6 mph2.6 kmh 29.88 in1011.9 mb 0.00 in0.0 mm 0.00 in/hr0.0 mm/hr 0.00 in0.0 mm
05:15 AM 50.0°F10.0°C 41.3°F5.2°C 72% 0.4 mph S0.6 kmh S 0.7 mph1.1 kmh 29.89 in1012.2 mb 0.00 in0.0 mm 0.00 in/hr0.0 mm/hr 0.00 in0.0 mm
05:20 AM 50.0°F10.0°C 41.3°F5.2°C 72% 0.2 mph S0.3 kmh S 0.7 mph1.1 kmh 29.89 in1012.2 mb 0.00 in0.0 mm 0.00 in/hr0.0 mm/hr 0.00 in0.0 mm
05:25 AM 50.0°F10.0°C 41.3°F5.2°C 72% Calm Calm 0.7 mph1.1 kmh 29.89 in1012.2 mb 0.00 in0.0 mm 0.00 in/hr0.0 mm/hr 0.00 in0.0 mm
05:30 AM 50.0°F10.0°C 41.3°F5.2°C 72% 0.3 mph S0.5 kmh S 0.7 mph1.1 kmh 29.89 in1012.2 mb 0.00 in0.0 mm 0.00 in/hr0.0 mm/hr 0.00 in0.0 mm
05:35 AM 50.0°F10.0°C 41.7°F5.4°C 73% 0.2 mph S0.3 kmh S 0.7 mph1.1 kmh 29.90 in1012.5 mb 0.00 in0.0 mm 0.00 in/hr0.0 mm/hr 0.00 in0.0 mm
05:40 AM 49.8°F9.9°C 41.5°F5.3°C 73% Calm Calm -- 29.89 in1012.2 mb 0.00 in0.0 mm 0.00 in/hr0.0 mm/hr 0.00 in0.0 mm
05:45 AM 50.0°F10.0°C 41.7°F5.4°C 73% 0.3 mph SSW0.5 kmh SSW 0.7 mph1.1 kmh 29.90 in1012.5 mb 0.00 in0.0 mm 0.00 in/hr0.0 mm/hr 0.00 in0.0 mm
05:50 AM 50.4°F10.2°C 41.7°F5.4°C 72% 0.5 mph SW0.8 kmh SW 0.7 mph1.1 kmh 29.90 in1012.5 mb 0.00 in0.0 mm 0.00 in/hr0.0 mm/hr 0.00 in0.0 mm
05:55 AM 50.4°F10.2°C 42.0°F5.6°C 73% 0.5 mph S0.8 kmh S 2.2 mph3.5 kmh 29.90 in1012.5 mb 0.00 in0.0 mm 0.00 in/hr0.0 mm/hr 0.00 in0.0 mm
06:00 AM 50.7°F10.4°C 42.0°F5.6°C 72% 1.1 mph SE1.8 kmh SE 2.2 mph3.5 kmh 29.90 in1012.5 mb 0.00 in0.0 mm 0.00 in/hr0.0 mm/hr 0.00 in0.0 mm
06:05 AM 50.9°F10.5°C 42.2°F5.7°C 72% 1.1 mph SE1.8 kmh SE 2.2 mph3.5 kmh 29.90 in1012.5 mb 0.00 in0.0 mm 0.00 in/hr0.0 mm/hr 0.00 in0.0 mm
06:10 AM 51.1°F10.6°C 42.4°F5.8°C 72% 0.3 mph S0.5 kmh S 0.7 mph1.1 kmh 29.91 in1012.9 mb 0.00 in0.0 mm 0.00 in/hr0.0 mm/hr 0.00 in0.0 mm
06:15 AM 51.4°F10.8°C 42.4°F5.8°C 71% 0.2 mph E0.3 kmh E 1.6 mph2.6 kmh 29.91 in1012.9 mb 0.00 in0.0 mm 0.00 in/hr0.0 mm/hr 0.00 in0.0 mm
06:20 AM 51.8°F11.0°C 42.7°F5.9°C 71% 0.2 mph E0.3 kmh E 1.6 mph2.6 kmh 29.91 in1012.9 mb 0.00 in0.0 mm 0.00 in/hr0.0 mm/hr 0.00 in0.0 mm
06:25 AM 52.2°F11.2°C 43.1°F6.2°C 71% 0.1 mph SW0.2 kmh SW 0.7 mph1.1 kmh 29.91 in1012.9 mb 0.00 in0.0 mm 0.00 in/hr0.0 mm/hr 0.00 in0.0 mm
06:30 AM 52.5°F11.4°C 43.0°F6.1°C 70% 0.2 mph SW0.3 kmh SW 0.7 mph1.1 kmh 29.90 in1012.5 mb 0.00 in0.0 mm 0.00 in/hr0.0 mm/hr 0.00 in0.0 mm
06:35 AM 53.1°F11.7°C 43.5°F6.4°C 70% 0.7 mph SW1.1 kmh SW 1.6 mph2.6 kmh 29.91 in1012.9 mb 0.00 in0.0 mm 0.00 in/hr0.0 mm/hr 0.00 in0.0 mm
06:40 AM 53.6°F12.0°C 44.1°F6.7°C 70% 0.7 mph SW1.1 kmh SW 1.6 mph2.6 kmh 29.91 in1012.9 mb 0.00 in0.0 mm 0.00 in/hr0.0 mm/hr 0.00 in0.0 mm
06:45 AM 54.0°F12.2°C 44.0°F6.7°C 69% 0.9 mph SW1.4 kmh SW 1.6 mph2.6 kmh 29.91 in1012.9 mb 0.00 in0.0 mm 0.00 in/hr0.0 mm/hr 0.00 in0.0 mm
06:50 AM 54.5°F12.5°C 44.5°F6.9°C 69% 1.5 mph S2.4 kmh S 2.2 mph3.5 kmh 29.91 in1012.9 mb 0.00 in0.0 mm 0.00 in/hr0.0 mm/hr 0.00 in0.0 mm
06:55 AM 55.2°F12.9°C 44.9°F7.2°C 68% 1.8 mph SE2.9 kmh SE 2.2 mph3.5 kmh 29.91 in1012.9 mb 0.00 in0.0 mm 0.00 in/hr0.0 mm/hr 0.00 in0.0 mm
07:00 AM 55.8°F13.2°C 45.4°F7.4°C 68% 1.9 mph S3.1 kmh S 2.2 mph3.5 kmh 29.91 in1012.9 mb 0.00 in0.0 mm 0.00 in/hr0.0 mm/hr 0.00 in0.0 mm
07:05 AM 56.3°F13.5°C 45.5°F7.5°C 67% 1.6 mph SSW2.6 kmh SSW 2.2 mph3.5 kmh 29.91 in1012.9 mb 0.00 in0.0 mm 0.00 in/hr0.0 mm/hr 0.00 in0.0 mm
07:10 AM 57.0°F13.9°C 46.2°F7.9°C 67% 1.5 mph S2.4 kmh S 2.2 mph3.5 kmh 29.91 in1012.9 mb 0.00 in0.0 mm 0.00 in/hr0.0 mm/hr 0.00 in0.0 mm
07:15 AM 57.7°F14.3°C 46.1°F7.8°C 65% 1.7 mph SSE2.7 kmh SSE 3.1 mph5.0 kmh 29.91 in1012.9 mb 0.00 in0.0 mm 0.00 in/hr0.0 mm/hr 0.00 in0.0 mm
07:20 AM 58.8°F14.9°C 47.1°F8.4°C 65% 1.8 mph S2.9 kmh S 3.1 mph5.0 kmh 29.90 in1012.5 mb 0.00 in0.0 mm 0.00 in/hr0.0 mm/hr 0.00 in0.0 mm
07:25 AM 59.9°F15.5°C 47.7°F8.7°C 64% 1.9 mph SSE3.1 kmh SSE 2.2 mph3.5 kmh 29.91 in1012.9 mb 0.00 in0.0 mm 0.00 in/hr0.0 mm/hr 0.00 in0.0 mm
07:30 AM 61.0°F16.1°C 48.3°F9.1°C 63% 2.1 mph S3.4 kmh S 3.1 mph5.0 kmh 29.91 in1012.9 mb 0.00 in0.0 mm 0.00 in/hr0.0 mm/hr 0.00 in0.0 mm
07:35 AM 61.9°F16.6°C 48.7°F9.3°C 62% 2.3 mph S3.7 kmh S 3.8 mph6.1 kmh 29.91 in1012.9 mb 0.00 in0.0 mm 0.00 in/hr0.0 mm/hr 0.00 in0.0 mm
07:40 AM 62.4°F16.9°C 48.4°F9.1°C 60% 3.6 mph SE5.8 kmh SE 6.0 mph9.7 kmh 29.91 in1012.9 mb 0.00 in0.0 mm 0.00 in/hr0.0 mm/hr 0.00 in0.0 mm
07:45 AM 63.1°F17.3°C 49.0°F9.4°C 60% 4.7 mph SE7.6 kmh SE 6.0 mph9.7 kmh 29.90 in1012.5 mb 0.00 in0.0 mm 0.00 in/hr0.0 mm/hr 0.00 in0.0 mm
07:50 AM 63.7°F17.6°C 49.1°F9.5°C 59% 4.5 mph SE7.2 kmh SE 5.4 mph8.7 kmh 29.91 in1012.9 mb 0.00 in0.0 mm 0.00 in/hr0.0 mm/hr 0.00 in0.0 mm
07:55 AM 64.4°F18.0°C 49.3°F9.6°C 58% 4.7 mph E7.6 kmh E 6.0 mph9.7 kmh 29.90 in1012.5 mb 0.00 in0.0 mm 0.00 in/hr0.0 mm/hr 0.00 in0.0 mm
08:00 AM 64.9°F18.3°C 49.8°F9.9°C 58% 4.9 mph E7.9 kmh E 6.0 mph9.7 kmh 29.89 in1012.2 mb 0.00 in0.0 mm 0.00 in/hr0.0 mm/hr 0.00 in0.0 mm
08:05 AM 65.8°F18.8°C 50.7°F10.4°C 58% 4.8 mph ESE7.7 kmh ESE 6.0 mph9.7 kmh 29.89 in1012.2 mb 0.00 in0.0 mm 0.00 in/hr0.0 mm/hr 0.00 in0.0 mm
08:10 AM 66.4°F19.1°C 51.2°F10.7°C 58% 4.3 mph SE6.9 kmh SE 6.0 mph9.7 kmh 29.89 in1012.2 mb 0.00 in0.0 mm 0.00 in/hr0.0 mm/hr 0.00 in0.0 mm
08:15 AM 66.9°F19.4°C 51.2°F10.7°C 57% 3.3 mph SE5.3 kmh SE 5.4 mph8.7 kmh 29.89 in1012.2 mb 0.00 in0.0 mm 0.00 in/hr0.0 mm/hr 0.00 in0.0 mm
08:20 AM 67.6°F19.8°C 51.4°F10.8°C 56% 4.2 mph SE6.8 kmh SE 7.6 mph12.2 kmh 29.89 in1012.2 mb 0.00 in0.0 mm 0.00 in/hr0.0 mm/hr 0.00 in0.0 mm
08:25 AM 67.6°F19.8°C 50.9°F10.5°C 55% 5.1 mph ESE8.2 kmh ESE 7.6 mph12.2 kmh 29.89 in1012.2 mb 0.00 in0.0 mm 0.00 in/hr0.0 mm/hr 0.00 in0.0 mm
08:30 AM 67.8°F19.9°C 51.1°F10.6°C 55% 5.2 mph E8.4 kmh E 6.9 mph11.1 kmh 29.89 in1012.2 mb 0.00 in0.0 mm 0.00 in/hr0.0 mm/hr 0.00 in0.0 mm
08:35 AM 68.4°F20.2°C 51.6°F10.9°C 55% 5.3 mph ESE8.5 kmh ESE 6.9 mph11.1 kmh 29.89 in1012.2 mb 0.00 in0.0 mm 0.00 in/hr0.0 mm/hr 0.00 in0.0 mm
08:40 AM 69.3°F20.7°C 51.9°F11.1°C 54% 5.4 mph ESE8.7 kmh ESE 7.6 mph12.2 kmh 29.89 in1012.2 mb 0.00 in0.0 mm 0.00 in/hr0.0 mm/hr 0.00 in0.0 mm
08:45 AM 69.3°F20.7°C 51.4°F10.8°C 53% 5.1 mph E8.2 kmh E 7.6 mph12.2 kmh 29.89 in1012.2 mb 0.00 in0.0 mm 0.00 in/hr0.0 mm/hr 0.00 in0.0 mm
08:50 AM 69.1°F20.6°C 52.3°F11.3°C 55% 3.8 mph ENE6.1 kmh ENE 5.4 mph8.7 kmh 29.89 in1012.2 mb 0.00 in0.0 mm 0.00 in/hr0.0 mm/hr 0.00 in0.0 mm
08:55 AM 69.8°F21.0°C 52.4°F11.3°C 54% 3.5 mph NE5.6 kmh NE 6.0 mph9.7 kmh 29.89 in1012.2 mb 0.00 in0.0 mm 0.00 in/hr0.0 mm/hr 0.00 in0.0 mm
09:00 AM 70.5°F21.4°C 53.1°F11.7°C 54% 3.5 mph E5.6 kmh E 6.0 mph9.7 kmh 29.88 in1011.9 mb 0.00 in0.0 mm 0.00 in/hr0.0 mm/hr 0.00 in0.0 mm
09:05 AM 71.4°F21.9°C 53.4°F11.9°C 53% 2.9 mph E4.7 kmh E 3.8 mph6.1 kmh 29.88 in1011.9 mb 0.00 in0.0 mm 0.00 in/hr0.0 mm/hr 0.00 in0.0 mm
09:10 AM 72.3°F22.4°C 53.2°F11.8°C 51% 2.5 mph SE4.0 kmh SE 3.8 mph6.1 kmh 29.88 in1011.9 mb 0.00 in0.0 mm 0.00 in/hr0.0 mm/hr 0.00 in0.0 mm
09:15 AM 72.9°F22.7°C 52.6°F11.4°C 49% 3.4 mph ESE5.5 kmh ESE 5.4 mph8.7 kmh 29.87 in1011.5 mb 0.00 in0.0 mm 0.00 in/hr0.0 mm/hr 0.00 in0.0 mm
09:25 AM 74.3°F23.5°C 52.8°F11.6°C 47% 4.4 mph SE7.1 kmh SE 6.0 mph9.7 kmh 29.87 in1011.5 mb 0.00 in0.0 mm 0.00 in/hr0.0 mm/hr 0.00 in0.0 mm
09:30 AM 75.0°F23.9°C 53.5°F11.9°C 47% 3.9 mph SSE6.3 kmh SSE 4.5 mph7.2 kmh 29.86 in1011.2 mb 0.00 in0.0 mm 0.00 in/hr0.0 mm/hr 0.00 in0.0 mm
09:35 AM 75.7°F24.3°C 53.5°F11.9°C 46% 3.9 mph ESE6.3 kmh ESE 5.4 mph8.7 kmh 29.86 in1011.2 mb 0.00 in0.0 mm 0.00 in/hr0.0 mm/hr 0.00 in0.0 mm
09:40 AM 76.1°F24.5°C 53.9°F12.2°C 46% 4.1 mph E6.6 kmh E 6.0 mph9.7 kmh 29.86 in1011.2 mb 0.00 in0.0 mm 0.00 in/hr0.0 mm/hr 0.00 in0.0 mm
09:45 AM 76.1°F24.5°C 53.3°F11.8°C 45% 4.1 mph ENE6.6 kmh ENE 6.0 mph9.7 kmh 29.85 in1010.8 mb 0.00 in0.0 mm 0.00 in/hr0.0 mm/hr 0.00 in0.0 mm
09:50 AM 76.6°F24.8°C 53.7°F12.1°C 45% 3.4 mph E5.5 kmh E 4.5 mph7.2 kmh 29.85 in1010.8 mb 0.00 in0.0 mm 0.00 in/hr0.0 mm/hr 0.00 in0.0 mm
09:55 AM 77.9°F25.5°C 54.9°F12.7°C 45% 3.7 mph SE6.0 kmh SE 6.0 mph9.7 kmh 29.85 in1010.8 mb 0.00 in0.0 mm 0.00 in/hr0.0 mm/hr 0.00 in0.0 mm
10:00 AM 78.6°F25.9°C 54.9°F12.7°C 44% 4.6 mph SE7.4 kmh SE 6.0 mph9.7 kmh 29.84 in1010.5 mb 0.00 in0.0 mm 0.00 in/hr0.0 mm/hr 0.00 in0.0 mm
10:05 AM 78.4°F25.8°C 54.1°F12.3°C 43% 4.1 mph E6.6 kmh E 6.0 mph9.7 kmh 29.84 in1010.5 mb 0.00 in0.0 mm 0.00 in/hr0.0 mm/hr 0.00 in0.0 mm
10:10 AM 79.0°F26.1°C 54.6°F12.6°C 43% 2.8 mph E4.5 kmh E 6.0 mph9.7 kmh 29.84 in1010.5 mb 0.00 in0.0 mm 0.00 in/hr0.0 mm/hr 0.00 in0.0 mm
10:15 AM 79.7°F26.5°C 55.3°F12.9°C 43% 3.7 mph ESE6.0 kmh ESE 6.0 mph9.7 kmh 29.84 in1010.5 mb 0.00 in0.0 mm 0.00 in/hr0.0 mm/hr 0.00 in0.0 mm
10:20 AM 81.0°F27.2°C 56.4°F13.6°C 43% 3.6 mph SE5.8 kmh SE 6.0 mph9.7 kmh 29.83 in1010.2 mb 0.00 in0.0 mm 0.00 in/hr0.0 mm/hr 0.00 in0.0 mm
10:25 AM 81.3°F27.4°C 54.7°F12.6°C 40% 3.5 mph SE5.6 kmh SE 6.0 mph9.7 kmh 29.83 in1010.2 mb 0.00 in0.0 mm 0.00 in/hr0.0 mm/hr 0.00 in0.0 mm
10:30 AM 81.0°F27.2°C 54.4°F12.4°C 40% 3.3 mph SE5.3 kmh SE 6.0 mph9.7 kmh 29.82 in1009.8 mb 0.00 in0.0 mm 0.00 in/hr0.0 mm/hr 0.00 in0.0 mm
10:35 AM 81.7°F27.6°C 55.1°F12.8°C 40% 3.9 mph ESE6.3 kmh ESE 7.6 mph12.2 kmh 29.82 in1009.8 mb 0.00 in0.0 mm 0.00 in/hr0.0 mm/hr 0.00 in0.0 mm
10:40 AM 82.4°F28.0°C 55.0°F12.8°C 39% 4.6 mph E7.4 kmh E 7.6 mph12.2 kmh 29.82 in1009.8 mb 0.00 in0.0 mm 0.00 in/hr0.0 mm/hr 0.00 in0.0 mm
10:45 AM 83.5°F28.6°C 56.0°F13.3°C 39% 4.3 mph SE6.9 kmh SE 6.9 mph11.1 kmh 29.82 in1009.8 mb 0.00 in0.0 mm 0.00 in/hr0.0 mm/hr 0.00 in0.0 mm
10:50 AM 84.0°F28.9°C 55.0°F12.8°C 37% 3.7 mph SE6.0 kmh SE 6.0 mph9.7 kmh 29.81 in1009.5 mb 0.00 in0.0 mm 0.00 in/hr0.0 mm/hr 0.00 in0.0 mm
10:55 AM 84.7°F29.3°C 54.9°F12.7°C 36% 4.3 mph SE6.9 kmh SE 6.9 mph11.1 kmh 29.81 in1009.5 mb 0.00 in0.0 mm 0.00 in/hr0.0 mm/hr 0.00 in0.0 mm
11:00 AM 85.3°F29.6°C 54.6°F12.6°C 35% 4.3 mph ESE6.9 kmh ESE 6.9 mph11.1 kmh 29.80 in1009.1 mb 0.00 in0.0 mm 0.00 in/hr0.0 mm/hr 0.00 in0.0 mm
11:05 AM 85.8°F29.9°C 54.3°F12.4°C 34% 4.3 mph E6.9 kmh E 7.6 mph12.2 kmh 29.80 in1009.1 mb 0.00 in0.0 mm 0.00 in/hr0.0 mm/hr 0.00 in0.0 mm
11:10 AM 85.5°F29.7°C 53.9°F12.2°C 34% 5.1 mph ENE8.2 kmh ENE 7.6 mph12.2 kmh 29.80 in1009.1 mb 0.00 in0.0 mm 0.00 in/hr0.0 mm/hr 0.00 in0.0 mm
11:15 AM 84.6°F29.2°C 52.3°F11.3°C 33% 4.4 mph NE7.1 kmh NE 6.9 mph11.1 kmh 29.79 in1008.8 mb 0.00 in0.0 mm 0.00 in/hr0.0 mm/hr 0.00 in0.0 mm
11:20 AM 84.4°F29.1°C 53.0°F11.7°C 34% 3.8 mph N6.1 kmh N 6.0 mph9.7 kmh 29.79 in1008.8 mb 0.00 in0.0 mm 0.00 in/hr0.0 mm/hr 0.00 in0.0 mm
11:25 AM 84.0°F28.9°C 51.9°F11.1°C 33% 4.4 mph NNE7.1 kmh NNE 6.9 mph11.1 kmh 29.79 in1008.8 mb 0.00 in0.0 mm 0.00 in/hr0.0 mm/hr 0.00 in0.0 mm
11:30 AM 83.7°F28.7°C 52.4°F11.3°C 34% 5.1 mph NE8.2 kmh NE 7.6 mph12.2 kmh 29.78 in1008.5 mb 0.00 in0.0 mm 0.00 in/hr0.0 mm/hr 0.00 in0.0 mm
11:35 AM 84.4°F29.1°C 52.2°F11.2°C 33% 4.1 mph NE6.6 kmh NE 7.6 mph12.2 kmh 29.78 in1008.5 mb 0.00 in0.0 mm 0.00 in/hr0.0 mm/hr 0.00 in0.0 mm
11:40 AM 85.3°F29.6°C 54.6°F12.6°C 35% 3.4 mph ENE5.5 kmh ENE 5.4 mph8.7 kmh 29.78 in1008.5 mb 0.00 in0.0 mm 0.00 in/hr0.0 mm/hr 0.00 in0.0 mm
11:45 AM 85.3°F29.6°C 53.8°F12.1°C 34% 3.4 mph NE5.5 kmh NE 6.0 mph9.7 kmh 29.77 in1008.1 mb 0.00 in0.0 mm 0.00 in/hr0.0 mm/hr 0.00 in0.0 mm
11:50 AM 86.5°F30.3°C 54.1°F12.3°C 33% 2.8 mph SW4.5 kmh SW 6.0 mph9.7 kmh 29.77 in1008.1 mb 0.00 in0.0 mm 0.00 in/hr0.0 mm/hr 0.00 in0.0 mm
11:55 AM 88.0°F31.1°C 55.3°F12.9°C 33% 3.5 mph ENE5.6 kmh ENE 6.9 mph11.1 kmh 29.76 in1007.8 mb 0.00 in0.0 mm 0.00 in/hr0.0 mm/hr 0.00 in0.0 mm
12:00 PM 88.0°F31.1°C 54.5°F12.5°C 32% 3.9 mph NE6.3 kmh NE 6.9 mph11.1 kmh 29.76 in1007.8 mb 0.00 in0.0 mm 0.00 in/hr0.0 mm/hr 0.00 in0.0 mm
12:05 PM 88.0°F31.1°C 54.5°F12.5°C 32% 3.6 mph N5.8 kmh N 6.0 mph9.7 kmh 29.75 in1007.5 mb 0.00 in0.0 mm 0.00 in/hr0.0 mm/hr 0.00 in0.0 mm
12:10 PM 88.0°F31.1°C 54.5°F12.5°C 32% 4.1 mph NE6.6 kmh NE 6.0 mph9.7 kmh 29.75 in1007.5 mb 0.00 in0.0 mm 0.00 in/hr0.0 mm/hr 0.00 in0.0 mm
12:15 PM 88.2°F31.2°C 53.8°F12.1°C 31% 3.4 mph NE5.5 kmh NE 5.4 mph8.7 kmh 29.75 in1007.5 mb 0.00 in0.0 mm 0.00 in/hr0.0 mm/hr 0.00 in0.0 mm
12:20 PM 89.1°F31.7°C 53.6°F12.0°C 30% 2.6 mph NE4.2 kmh NE 5.4 mph8.7 kmh 29.74 in1007.1 mb 0.00 in0.0 mm 0.00 in/hr0.0 mm/hr 0.00 in0.0 mm
12:25 PM 89.1°F31.7°C 55.4°F13.0°C 32% 3.0 mph ENE4.8 kmh ENE 4.5 mph7.2 kmh 29.74 in1007.1 mb 0.00 in0.0 mm 0.00 in/hr0.0 mm/hr 0.00 in0.0 mm
12:30 PM 89.1°F31.7°C 54.5°F12.5°C 31% 3.5 mph NNE5.6 kmh NNE 5.4 mph8.7 kmh 29.74 in1007.1 mb 0.00 in0.0 mm 0.00 in/hr0.0 mm/hr 0.00 in0.0 mm
12:35 PM 89.8°F32.1°C 55.2°F12.9°C 31% 3.7 mph NE6.0 kmh NE 5.4 mph8.7 kmh 29.74 in1007.1 mb 0.00 in0.0 mm 0.00 in/hr0.0 mm/hr 0.00 in0.0 mm
12:40 PM 91.0°F32.8°C 55.4°F13.0°C 30% 3.8 mph SSE6.1 kmh SSE 4.5 mph7.2 kmh 29.73 in1006.8 mb 0.00 in0.0 mm 0.00 in/hr0.0 mm/hr 0.00 in0.0 mm
12:45 PM 91.8°F33.2°C 56.0°F13.3°C 30% 3.7 mph S6.0 kmh S 4.5 mph7.2 kmh 29.73 in1006.8 mb 0.00 in0.0 mm 0.00 in/hr0.0 mm/hr 0.00 in0.0 mm
12:50 PM 91.9°F33.3°C 55.2°F12.9°C 29% 3.4 mph S5.5 kmh S 4.5 mph7.2 kmh 29.73 in1006.8 mb 0.00 in0.0 mm 0.00 in/hr0.0 mm/hr 0.00 in0.0 mm
12:55 PM 91.8°F33.2°C 52.1°F11.2°C 26% 3.5 mph WSW5.6 kmh WSW 6.0 mph9.7 kmh 29.73 in1006.8 mb 0.00 in0.0 mm 0.00 in/hr0.0 mm/hr 0.00 in0.0 mm
01:00 PM 90.7°F32.6°C 53.2°F11.8°C 28% 3.1 mph WSW5.0 kmh WSW 6.0 mph9.7 kmh 29.72 in1006.4 mb 0.00 in0.0 mm 0.00 in/hr0.0 mm/hr 0.00 in0.0 mm
01:05 PM 91.4°F33.0°C 55.7°F13.2°C 30% 2.5 mph SSE4.0 kmh SSE 3.8 mph6.1 kmh 29.72 in1006.4 mb 0.00 in0.0 mm 0.00 in/hr0.0 mm/hr 0.00 in0.0 mm
01:10 PM 93.0°F33.9°C 56.1°F13.4°C 29% 3.2 mph SSE5.1 kmh SSE 4.5 mph7.2 kmh 29.72 in1006.4 mb 0.00 in0.0 mm 0.00 in/hr0.0 mm/hr 0.00 in0.0 mm
01:15 PM 92.8°F33.8°C 56.0°F13.3°C 29% 3.6 mph SE5.8 kmh SE 5.4 mph8.7 kmh 29.72 in1006.4 mb 0.00 in0.0 mm 0.00 in/hr0.0 mm/hr 0.00 in0.0 mm
01:20 PM 92.5°F33.6°C 53.7°F12.1°C 27% 4.2 mph ESE6.8 kmh ESE 6.9 mph11.1 kmh 29.71 in1006.1 mb 0.00 in0.0 mm 0.00 in/hr0.0 mm/hr 0.00 in0.0 mm
01:25 PM 92.1°F33.4°C 55.4°F13.0°C 29% 3.6 mph ESE5.8 kmh ESE 6.9 mph11.1 kmh 29.71 in1006.1 mb 0.00 in0.0 mm 0.00 in/hr0.0 mm/hr 0.00 in0.0 mm
01:30 PM 91.2°F32.9°C 53.6°F12.0°C 28% 2.4 mph E3.9 kmh E 5.4 mph8.7 kmh 29.70 in1005.8 mb 0.00 in0.0 mm 0.00 in/hr0.0 mm/hr 0.00 in0.0 mm
01:35 PM 91.2°F32.9°C 54.6°F12.6°C 29% 2.8 mph E4.5 kmh E 3.8 mph6.1 kmh 29.69 in1005.4 mb 0.00 in0.0 mm 0.00 in/hr0.0 mm/hr 0.00 in0.0 mm
01:40 PM 91.4°F33.0°C 52.8°F11.6°C 27% 2.9 mph E4.7 kmh E 4.5 mph7.2 kmh 29.69 in1005.4 mb 0.00 in0.0 mm 0.00 in/hr0.0 mm/hr 0.00 in0.0 mm
01:45 PM 91.9°F33.3°C 51.1°F10.6°C 25% 3.3 mph N5.3 kmh N 6.0 mph9.7 kmh 29.69 in1005.4 mb 0.00 in0.0 mm 0.00 in/hr0.0 mm/hr 0.00 in0.0 mm
01:50 PM 91.8°F33.2°C 49.9°F9.9°C 24% 4.1 mph NW6.6 kmh NW 6.9 mph11.1 kmh 29.69 in1005.4 mb 0.00 in0.0 mm 0.00 in/hr0.0 mm/hr 0.00 in0.0 mm
01:55 PM 91.6°F33.1°C 48.6°F9.2°C 23% 4.9 mph NNW7.9 kmh NNW 7.6 mph12.2 kmh 29.68 in1005.1 mb 0.00 in0.0 mm 0.00 in/hr0.0 mm/hr 0.00 in0.0 mm
02:00 PM 90.9°F32.7°C 49.1°F9.5°C 24% 4.7 mph N7.6 kmh N 7.6 mph12.2 kmh 29.68 in1005.1 mb 0.00 in0.0 mm 0.00 in/hr0.0 mm/hr 0.00 in0.0 mm
02:05 PM 90.5°F32.5°C 47.7°F8.7°C 23% 4.6 mph NW7.4 kmh NW 6.9 mph11.1 kmh 29.68 in1005.1 mb 0.00 in0.0 mm 0.00 in/hr0.0 mm/hr 0.00 in0.0 mm
02:10 PM 90.3°F32.4°C 46.4°F8.0°C 22% 6.2 mph NW10.0 kmh NW 9.8 mph15.8 kmh 29.68 in1005.1 mb 0.00 in0.0 mm 0.00 in/hr0.0 mm/hr 0.00 in0.0 mm
02:15 PM 90.0°F32.2°C 46.1°F7.8°C 22% 7.4 mph NW11.9 kmh NW 9.8 mph15.8 kmh 29.67 in1004.7 mb 0.00 in0.0 mm 0.00 in/hr0.0 mm/hr 0.00 in0.0 mm
02:20 PM 90.1°F32.3°C 46.2°F7.9°C 22% 8.8 mph NW14.2 kmh NW 13.6 mph21.9 kmh 29.67 in1004.7 mb 0.00 in0.0 mm 0.00 in/hr0.0 mm/hr 0.00 in0.0 mm
02:25 PM 90.1°F32.3°C 46.2°F7.9°C 22% 9.5 mph NW15.3 kmh NW 15.2 mph24.5 kmh 29.66 in1004.4 mb 0.00 in0.0 mm 0.00 in/hr0.0 mm/hr 0.00 in0.0 mm
02:30 PM 90.9°F32.7°C 45.6°F7.6°C 21% 9.7 mph NW15.6 kmh NW 15.2 mph24.5 kmh 29.65 in1004.1 mb 0.00 in0.0 mm 0.00 in/hr0.0 mm/hr 0.00 in0.0 mm
02:35 PM 90.5°F32.5°C 44.0°F6.7°C 20% 11.2 mph NW18.0 kmh NW 15.2 mph24.5 kmh 29.66 in1004.4 mb 0.00 in0.0 mm 0.00 in/hr0.0 mm/hr 0.00 in0.0 mm
02:40 PM 90.5°F32.5°C 44.0°F6.7°C 20% 11.1 mph NW17.9 kmh NW 13.0 mph20.9 kmh 29.66 in1004.4 mb 0.00 in0.0 mm 0.00 in/hr0.0 mm/hr 0.00 in0.0 mm
02:45 PM 90.5°F32.5°C 42.7°F5.9°C 19% 10.7 mph NW17.2 kmh NW 13.0 mph20.9 kmh 29.66 in1004.4 mb 0.00 in0.0 mm 0.00 in/hr0.0 mm/hr 0.00 in0.0 mm
02:50 PM 90.5°F32.5°C 44.0°F6.7°C 20% 10.6 mph WNW17.1 kmh WNW 13.0 mph20.9 kmh 29.65 in1004.1 mb 0.00 in0.0 mm 0.00 in/hr0.0 mm/hr 0.00 in0.0 mm
02:55 PM 90.5°F32.5°C 44.0°F6.7°C 20% 10.8 mph NW17.4 kmh NW 14.5 mph23.3 kmh 29.65 in1004.1 mb 0.00 in0.0 mm 0.00 in/hr0.0 mm/hr 0.00 in0.0 mm
03:00 PM 89.8°F32.1°C 42.1°F5.6°C 19% 10.6 mph NW17.1 kmh NW 14.5 mph23.3 kmh 29.65 in1004.1 mb 0.00 in0.0 mm 0.00 in/hr0.0 mm/hr 0.00 in0.0 mm
03:05 PM 89.4°F31.9°C 41.8°F5.4°C 19% 11.2 mph NW18.0 kmh NW 19.7 mph31.7 kmh 29.65 in1004.1 mb 0.00 in0.0 mm 0.00 in/hr0.0 mm/hr 0.00 in0.0 mm
03:10 PM 89.1°F31.7°C 42.8°F6.0°C 20% 12.0 mph NW19.3 kmh NW 19.7 mph31.7 kmh 29.65 in1004.1 mb 0.00 in0.0 mm 0.00 in/hr0.0 mm/hr 0.00 in0.0 mm
03:15 PM 89.2°F31.8°C 43.0°F6.1°C 20% 11.2 mph NW18.0 kmh NW 19.7 mph31.7 kmh 29.64 in1003.7 mb 0.00 in0.0 mm 0.00 in/hr0.0 mm/hr 0.00 in0.0 mm
03:20 PM 88.7°F31.5°C 42.5°F5.8°C 20% 11.2 mph NW18.0 kmh NW 18.3 mph29.5 kmh 29.65 in1004.1 mb 0.00 in0.0 mm 0.00 in/hr0.0 mm/hr 0.00 in0.0 mm
03:25 PM 88.3°F31.3°C 43.5°F6.4°C 21% 10.6 mph NW17.1 kmh NW 13.6 mph21.9 kmh 29.64 in1003.7 mb 0.00 in0.0 mm 0.00 in/hr0.0 mm/hr 0.00 in0.0 mm
03:30 PM 88.7°F31.5°C 45.0°F7.2°C 22% 8.5 mph NW13.7 kmh NW 13.0 mph20.9 kmh 29.64 in1003.7 mb 0.00 in0.0 mm 0.00 in/hr0.0 mm/hr 0.00 in0.0 mm
03:35 PM 88.7°F31.5°C 43.8°F6.6°C 21% 7.4 mph NW11.9 kmh NW 13.0 mph20.9 kmh 29.64 in1003.7 mb 0.00 in0.0 mm 0.00 in/hr0.0 mm/hr 0.00 in0.0 mm
03:40 PM 89.1°F31.7°C 42.8°F6.0°C 20% 8.3 mph WNW13.4 kmh WNW 13.0 mph20.9 kmh 29.64 in1003.7 mb 0.00 in0.0 mm 0.00 in/hr0.0 mm/hr 0.00 in0.0 mm
03:45 PM 89.2°F31.8°C 43.0°F6.1°C 20% 8.7 mph WNW14.0 kmh WNW 13.6 mph21.9 kmh 29.63 in1003.4 mb 0.00 in0.0 mm 0.00 in/hr0.0 mm/hr 0.00 in0.0 mm
03:50 PM 89.6°F32.0°C 43.3°F6.3°C 20% 8.6 mph NW13.8 kmh NW 13.6 mph21.9 kmh 29.63 in1003.4 mb 0.00 in0.0 mm 0.00 in/hr0.0 mm/hr 0.00 in0.0 mm
03:55 PM 89.8°F32.1°C 43.4°F6.3°C 20% 8.5 mph NW13.7 kmh NW 10.7 mph17.2 kmh 29.63 in1003.4 mb 0.00 in0.0 mm 0.00 in/hr0.0 mm/hr 0.00 in0.0 mm
04:00 PM 90.1°F32.3°C 43.7°F6.5°C 20% 8.4 mph NW13.5 kmh NW 10.7 mph17.2 kmh 29.63 in1003.4 mb 0.00 in0.0 mm 0.00 in/hr0.0 mm/hr 0.00 in0.0 mm
04:05 PM 90.1°F32.3°C 43.7°F6.5°C 20% 7.7 mph NW12.4 kmh NW 9.8 mph15.8 kmh 29.62 in1003.0 mb 0.00 in0.0 mm 0.00 in/hr0.0 mm/hr 0.00 in0.0 mm
04:10 PM 89.8°F32.1°C 44.7°F7.1°C 21% 7.0 mph NW11.3 kmh NW 9.8 mph15.8 kmh 29.62 in1003.0 mb 0.00 in0.0 mm 0.00 in/hr0.0 mm/hr 0.00 in0.0 mm
04:15 PM 89.6°F32.0°C 44.5°F6.9°C 21% 6.6 mph NW10.6 kmh NW 9.2 mph14.8 kmh 29.62 in1003.0 mb 0.00 in0.0 mm 0.00 in/hr0.0 mm/hr 0.00 in0.0 mm
04:20 PM 89.6°F32.0°C 44.5°F6.9°C 21% 6.6 mph NW10.6 kmh NW 11.4 mph18.3 kmh 29.62 in1003.0 mb 0.00 in0.0 mm 0.00 in/hr0.0 mm/hr 0.00 in0.0 mm
04:25 PM 89.2°F31.8°C 44.3°F6.8°C 21% 5.2 mph NW8.4 kmh NW 11.4 mph18.3 kmh 29.62 in1003.0 mb 0.00 in0.0 mm 0.00 in/hr0.0 mm/hr 0.00 in0.0 mm
04:30 PM 88.9°F31.6°C 44.0°F6.7°C 21% 4.9 mph NW7.9 kmh NW 7.6 mph12.2 kmh 29.62 in1003.0 mb 0.00 in0.0 mm 0.00 in/hr0.0 mm/hr 0.00 in0.0 mm
04:35 PM 88.5°F31.4°C 43.7°F6.5°C 21% 6.0 mph NW9.7 kmh NW 7.6 mph12.2 kmh 29.62 in1003.0 mb 0.00 in0.0 mm 0.00 in/hr0.0 mm/hr 0.00 in0.0 mm
04:40 PM 88.2°F31.2°C 44.6°F7.0°C 22% 5.5 mph NW8.9 kmh NW 7.6 mph12.2 kmh 29.62 in1003.0 mb 0.00 in0.0 mm 0.00 in/hr0.0 mm/hr 0.00 in0.0 mm
04:45 PM 87.8°F31.0°C 44.3°F6.8°C 22% 4.2 mph NW6.8 kmh NW 6.0 mph9.7 kmh 29.62 in1003.0 mb 0.00 in0.0 mm 0.00 in/hr0.0 mm/hr 0.00 in0.0 mm
04:50 PM 87.6°F30.9°C 44.1°F6.7°C 22% 4.1 mph NW6.6 kmh NW 7.6 mph12.2 kmh 29.62 in1003.0 mb 0.00 in0.0 mm 0.00 in/hr0.0 mm/hr 0.00 in0.0 mm
04:55 PM 87.6°F30.9°C 44.1°F6.7°C 22% 4.9 mph NW7.9 kmh NW 7.6 mph12.2 kmh 29.62 in1003.0 mb 0.00 in0.0 mm 0.00 in/hr0.0 mm/hr 0.00 in0.0 mm
05:00 PM 87.4°F30.8°C 44.0°F6.7°C 22% 4.7 mph NW7.6 kmh NW 7.6 mph12.2 kmh 29.61 in1002.7 mb 0.00 in0.0 mm 0.00 in/hr0.0 mm/hr 0.00 in0.0 mm
05:05 PM 87.1°F30.6°C 43.7°F6.5°C 22% 5.3 mph N8.5 kmh N 6.9 mph11.1 kmh 29.60 in1002.4 mb 0.00 in0.0 mm 0.00 in/hr0.0 mm/hr 0.00 in0.0 mm
05:10 PM 87.1°F30.6°C 43.7°F6.5°C 22% 5.7 mph N9.2 kmh N 7.6 mph12.2 kmh 29.60 in1002.4 mb 0.00 in0.0 mm 0.00 in/hr0.0 mm/hr 0.00 in0.0 mm
05:15 PM 86.9°F30.5°C 43.5°F6.4°C 22% 4.9 mph NNW7.9 kmh NNW 7.6 mph12.2 kmh 29.61 in1002.7 mb 0.00 in0.0 mm 0.00 in/hr0.0 mm/hr 0.00 in0.0 mm
05:20 PM 86.7°F30.4°C 43.4°F6.3°C 22% 4.6 mph NNW7.4 kmh NNW 6.9 mph11.1 kmh 29.61 in1002.7 mb 0.00 in0.0 mm 0.00 in/hr0.0 mm/hr 0.00 in0.0 mm
05:25 PM 86.9°F30.5°C 44.7°F7.1°C 23% 4.6 mph N7.4 kmh N 6.9 mph11.1 kmh 29.60 in1002.4 mb 0.00 in0.0 mm 0.00 in/hr0.0 mm/hr 0.00 in0.0 mm
05:30 PM 87.3°F30.7°C 43.8°F6.6°C 22% 5.2 mph NNW8.4 kmh NNW 9.2 mph14.8 kmh 29.60 in1002.4 mb 0.00 in0.0 mm 0.00 in/hr0.0 mm/hr 0.00 in0.0 mm
05:35 PM 87.3°F30.7°C 43.8°F6.6°C 22% 5.9 mph NW9.5 kmh NW 9.2 mph14.8 kmh 29.60 in1002.4 mb 0.00 in0.0 mm 0.00 in/hr0.0 mm/hr 0.00 in0.0 mm
05:40 PM 86.9°F30.5°C 43.5°F6.4°C 22% 6.7 mph NW10.8 kmh NW 9.8 mph15.8 kmh 29.60 in1002.4 mb 0.00 in0.0 mm 0.00 in/hr0.0 mm/hr 0.00 in0.0 mm
05:45 PM 86.5°F30.3°C 43.2°F6.2°C 22% 6.2 mph NW10.0 kmh NW 9.8 mph15.8 kmh 29.60 in1002.4 mb 0.00 in0.0 mm 0.00 in/hr0.0 mm/hr 0.00 in0.0 mm
05:50 PM 86.4°F30.2°C 43.1°F6.2°C 22% 5.2 mph N8.4 kmh N 6.9 mph11.1 kmh 29.60 in1002.4 mb 0.00 in0.0 mm 0.00 in/hr0.0 mm/hr 0.00 in0.0 mm
05:55 PM 86.2°F30.1°C 42.9°F6.1°C 22% 5.2 mph N8.4 kmh N 7.6 mph12.2 kmh 29.60 in1002.4 mb 0.00 in0.0 mm 0.00 in/hr0.0 mm/hr 0.00 in0.0 mm
06:00 PM 85.8°F29.9°C 42.6°F5.9°C 22% 5.4 mph NW8.7 kmh NW 7.6 mph12.2 kmh 29.59 in1002.0 mb 0.00 in0.0 mm 0.00 in/hr0.0 mm/hr 0.00 in0.0 mm
06:05 PM 85.5°F29.7°C 42.3°F5.7°C 22% 5.0 mph NW8.0 kmh NW 7.6 mph12.2 kmh 29.59 in1002.0 mb 0.00 in0.0 mm 0.00 in/hr0.0 mm/hr 0.00 in0.0 mm
06:10 PM 85.3°F29.6°C 42.2°F5.7°C 22% 4.7 mph NW7.6 kmh NW 6.0 mph9.7 kmh 29.59 in1002.0 mb 0.00 in0.0 mm 0.00 in/hr0.0 mm/hr 0.00 in0.0 mm
06:15 PM 84.9°F29.4°C 41.9°F5.5°C 22% 4.7 mph NW7.6 kmh NW 6.0 mph9.7 kmh 29.59 in1002.0 mb 0.00 in0.0 mm 0.00 in/hr0.0 mm/hr 0.00 in0.0 mm
06:20 PM 84.6°F29.2°C 42.7°F5.9°C 23% 4.6 mph NNW7.4 kmh NNW 6.0 mph9.7 kmh 29.59 in1002.0 mb 0.00 in0.0 mm 0.00 in/hr0.0 mm/hr 0.00 in0.0 mm
06:25 PM 84.4°F29.1°C 41.4°F5.2°C 22% 4.9 mph N7.9 kmh N 6.0 mph9.7 kmh 29.59 in1002.0 mb 0.00 in0.0 mm 0.00 in/hr0.0 mm/hr 0.00 in0.0 mm
06:30 PM 84.0°F28.9°C 42.3°F5.7°C 23% 4.6 mph N7.4 kmh N 6.9 mph11.1 kmh 29.59 in1002.0 mb 0.00 in0.0 mm 0.00 in/hr0.0 mm/hr 0.00 in0.0 mm
06:35 PM 83.5°F28.6°C 41.8°F5.4°C 23% 4.5 mph N7.2 kmh N 7.6 mph12.2 kmh 29.59 in1002.0 mb 0.00 in0.0 mm 0.00 in/hr0.0 mm/hr 0.00 in0.0 mm
06:40 PM 82.9°F28.3°C 41.4°F5.2°C 23% 4.1 mph NNW6.6 kmh NNW 7.6 mph12.2 kmh 29.59 in1002.0 mb 0.00 in0.0 mm 0.00 in/hr0.0 mm/hr 0.00 in0.0 mm
06:45 PM 82.6°F28.1°C 42.2°F5.7°C 24% 3.2 mph NW5.1 kmh NW 4.5 mph7.2 kmh 29.59 in1002.0 mb 0.00 in0.0 mm 0.00 in/hr0.0 mm/hr 0.00 in0.0 mm
06:50 PM 82.2°F27.9°C 41.9°F5.5°C 24% 2.4 mph WNW3.9 kmh WNW 4.5 mph7.2 kmh 29.59 in1002.0 mb 0.00 in0.0 mm 0.00 in/hr0.0 mm/hr 0.00 in0.0 mm
06:55 PM 81.1°F27.3°C 45.9°F7.7°C 29% 1.3 mph WSW2.1 kmh WSW 3.8 mph6.1 kmh 29.59 in1002.0 mb 0.00 in0.0 mm 0.00 in/hr0.0 mm/hr 0.00 in0.0 mm
07:00 PM 80.2°F26.8°C 45.1°F7.3°C 29% 0.7 mph SW1.1 kmh SW 1.6 mph2.6 kmh 29.59 in1002.0 mb 0.00 in0.0 mm 0.00 in/hr0.0 mm/hr 0.00 in0.0 mm
07:05 PM 79.3°F26.3°C 46.1°F7.8°C 31% 0.8 mph SSW1.3 kmh SSW 2.2 mph3.5 kmh 29.59 in1002.0 mb 0.00 in0.0 mm 0.00 in/hr0.0 mm/hr 0.00 in0.0 mm
07:10 PM 78.8°F26.0°C 48.1°F8.9°C 34% 1.0 mph S1.6 kmh S 2.2 mph3.5 kmh 29.59 in1002.0 mb 0.00 in0.0 mm 0.00 in/hr0.0 mm/hr 0.00 in0.0 mm
07:15 PM 78.3°F25.7°C 48.4°F9.1°C 35% 1.2 mph S1.9 kmh S 2.2 mph3.5 kmh 29.59 in1002.0 mb 0.00 in0.0 mm 0.00 in/hr0.0 mm/hr 0.00 in0.0 mm
07:20 PM 77.7°F25.4°C 47.9°F8.8°C 35% 1.2 mph S1.9 kmh S 2.2 mph3.5 kmh 29.59 in1002.0 mb 0.00 in0.0 mm 0.00 in/hr0.0 mm/hr 0.00 in0.0 mm
07:25 PM 77.0°F25.0°C 48.8°F9.3°C 37% 1.8 mph S2.9 kmh S 3.8 mph6.1 kmh 29.59 in1002.0 mb 0.00 in0.0 mm 0.00 in/hr0.0 mm/hr 0.00 in0.0 mm
07:30 PM 76.5°F24.7°C 47.6°F8.7°C 36% 1.9 mph SSW3.1 kmh SSW 3.8 mph6.1 kmh 29.59 in1002.0 mb 0.00 in0.0 mm 0.00 in/hr0.0 mm/hr 0.00 in0.0 mm
07:35 PM 75.9°F24.4°C 48.5°F9.2°C 38% 1.5 mph SSW2.4 kmh SSW 3.1 mph5.0 kmh 29.59 in1002.0 mb 0.00 in0.0 mm 0.00 in/hr0.0 mm/hr 0.00 in0.0 mm
07:40 PM 75.6°F24.2°C 49.6°F9.8°C 40% 1.8 mph S2.9 kmh S 2.2 mph3.5 kmh 29.59 in1002.0 mb 0.00 in0.0 mm 0.00 in/hr0.0 mm/hr 0.00 in0.0 mm
07:45 PM 75.2°F24.0°C 49.3°F9.6°C 40% 1.9 mph S3.1 kmh S 2.2 mph3.5 kmh 29.59 in1002.0 mb 0.00 in0.0 mm 0.00 in/hr0.0 mm/hr 0.00 in0.0 mm
07:50 PM 74.7°F23.7°C 48.8°F9.3°C 40% 1.8 mph S2.9 kmh S 3.1 mph5.0 kmh 29.59 in1002.0 mb 0.00 in0.0 mm 0.00 in/hr0.0 mm/hr 0.00 in0.0 mm
07:55 PM 74.1°F23.4°C 48.3°F9.1°C 40% 1.8 mph S2.9 kmh S 3.1 mph5.0 kmh 29.59 in1002.0 mb 0.00 in0.0 mm 0.00 in/hr0.0 mm/hr 0.00 in0.0 mm
08:00 PM 73.9°F23.3°C 48.8°F9.3°C 41% 1.8 mph SSW2.9 kmh SSW 3.1 mph5.0 kmh 29.59 in1002.0 mb 0.00 in0.0 mm 0.00 in/hr0.0 mm/hr 0.00 in0.0 mm
08:05 PM 73.6°F23.1°C 50.4°F10.2°C 44% 1.8 mph S2.9 kmh S 3.1 mph5.0 kmh 29.59 in1002.0 mb 0.00 in0.0 mm 0.00 in/hr0.0 mm/hr 0.00 in0.0 mm
08:10 PM 73.4°F23.0°C 49.6°F9.8°C 43% 2.0 mph S3.2 kmh S 3.1 mph5.0 kmh 29.59 in1002.0 mb 0.00 in0.0 mm 0.00 in/hr0.0 mm/hr 0.00 in0.0 mm
08:15 PM 73.0°F22.8°C 48.6°F9.2°C 42% 2.0 mph S3.2 kmh S 3.1 mph5.0 kmh 29.59 in1002.0 mb 0.00 in0.0 mm 0.00 in/hr0.0 mm/hr 0.00 in0.0 mm
08:20 PM 72.9°F22.7°C 48.5°F9.2°C 42% 1.6 mph S2.6 kmh S 2.2 mph3.5 kmh 29.59 in1002.0 mb 0.00 in0.0 mm 0.00 in/hr0.0 mm/hr 0.00 in0.0 mm
08:25 PM 72.5°F22.5°C 48.1°F8.9°C 42% 1.6 mph S2.6 kmh S 2.2 mph3.5 kmh 29.59 in1002.0 mb 0.00 in0.0 mm 0.00 in/hr0.0 mm/hr 0.00 in0.0 mm
08:30 PM 72.1°F22.3°C 48.4°F9.1°C 43% 1.7 mph S2.7 kmh S 2.2 mph3.5 kmh 29.59 in1002.0 mb 0.00 in0.0 mm 0.00 in/hr0.0 mm/hr 0.00 in0.0 mm
08:35 PM 71.4°F21.9°C 48.4°F9.1°C 44% 1.7 mph SSE2.7 kmh SSE 2.2 mph3.5 kmh 29.59 in1002.0 mb 0.00 in0.0 mm 0.00 in/hr0.0 mm/hr 0.00 in0.0 mm
08:40 PM 71.2°F21.8°C 48.8°F9.3°C 45% 1.7 mph S2.7 kmh S 3.1 mph5.0 kmh 29.59 in1002.0 mb 0.00 in0.0 mm 0.00 in/hr0.0 mm/hr 0.00 in0.0 mm
08:45 PM 70.9°F21.6°C 48.5°F9.2°C 45% 1.8 mph S2.9 kmh S 3.1 mph5.0 kmh 29.59 in1002.0 mb 0.00 in0.0 mm 0.00 in/hr0.0 mm/hr 0.00 in0.0 mm
08:50 PM 70.7°F21.5°C 48.3°F9.1°C 45% 1.8 mph S2.9 kmh S 2.2 mph3.5 kmh 29.59 in1002.0 mb 0.00 in0.0 mm 0.00 in/hr0.0 mm/hr 0.00 in0.0 mm
08:55 PM 70.2°F21.2°C 48.4°F9.1°C 46% 1.7 mph S2.7 kmh S 2.2 mph3.5 kmh 29.59 in1002.0 mb 0.00 in0.0 mm 0.00 in/hr0.0 mm/hr 0.00 in0.0 mm
09:00 PM 70.2°F21.2°C 48.4°F9.1°C 46% 1.8 mph S2.9 kmh S 2.2 mph3.5 kmh 29.59 in1002.0 mb 0.00 in0.0 mm 0.00 in/hr0.0 mm/hr 0.00 in0.0 mm
09:05 PM 69.8°F21.0°C 48.1°F8.9°C 46% 1.7 mph S2.7 kmh S 2.2 mph3.5 kmh 29.59 in1002.0 mb 0.00 in0.0 mm 0.00 in/hr0.0 mm/hr 0.00 in0.0 mm
09:10 PM 69.6°F20.9°C 48.5°F9.2°C 47% 1.5 mph S2.4 kmh S 2.2 mph3.5 kmh 29.59 in1002.0 mb 0.00 in0.0 mm 0.00 in/hr0.0 mm/hr 0.00 in0.0 mm
09:15 PM 69.3°F20.7°C 48.2°F9.0°C 47% 1.4 mph S2.3 kmh S 2.2 mph3.5 kmh 29.59 in1002.0 mb 0.00 in0.0 mm 0.00 in/hr0.0 mm/hr 0.00 in0.0 mm
09:20 PM 68.9°F20.5°C 47.9°F8.8°C 47% 1.3 mph S2.1 kmh S 2.2 mph3.5 kmh 29.59 in1002.0 mb 0.00 in0.0 mm 0.00 in/hr0.0 mm/hr 0.00 in0.0 mm
09:25 PM 68.7°F20.4°C 47.7°F8.7°C 47% 1.1 mph S1.8 kmh S 1.6 mph2.6 kmh 29.59 in1002.0 mb 0.00 in0.0 mm 0.00 in/hr0.0 mm/hr 0.00 in0.0 mm
09:30 PM 68.4°F20.2°C 47.9°F8.8°C 48% 1.2 mph S1.9 kmh S 1.6 mph2.6 kmh 29.59 in1002.0 mb 0.00 in0.0 mm 0.00 in/hr0.0 mm/hr 0.00 in0.0 mm
09:35 PM 68.0°F20.0°C 48.1°F8.9°C 49% 1.5 mph S2.4 kmh S 2.2 mph3.5 kmh 29.59 in1002.0 mb 0.00 in0.0 mm 0.00 in/hr0.0 mm/hr 0.00 in0.0 mm
09:40 PM 68.0°F20.0°C 48.1°F8.9°C 49% 2.1 mph S3.4 kmh S 3.1 mph5.0 kmh 29.59 in1002.0 mb 0.00 in0.0 mm 0.00 in/hr0.0 mm/hr 0.00 in0.0 mm
09:45 PM 67.6°F19.8°C 47.3°F8.5°C 48% 2.2 mph SSW3.5 kmh SSW 3.1 mph5.0 kmh 29.58 in1001.7 mb 0.00 in0.0 mm 0.00 in/hr0.0 mm/hr 0.00 in0.0 mm
09:50 PM 67.6°F19.8°C 47.3°F8.5°C 48% 2.2 mph S3.5 kmh S 3.8 mph6.1 kmh 29.58 in1001.7 mb 0.00 in0.0 mm 0.00 in/hr0.0 mm/hr 0.00 in0.0 mm
09:55 PM 67.5°F19.7°C 47.1°F8.4°C 48% 2.5 mph SE4.0 kmh SE 3.8 mph6.1 kmh 29.58 in1001.7 mb 0.00 in0.0 mm 0.00 in/hr0.0 mm/hr 0.00 in0.0 mm
10:00 PM 67.1°F19.5°C 46.8°F8.2°C 48% 2.2 mph SSE3.5 kmh SSE 3.8 mph6.1 kmh 29.58 in1001.7 mb 0.00 in0.0 mm 0.00 in/hr0.0 mm/hr 0.00 in0.0 mm
10:05 PM 67.1°F19.5°C 47.3°F8.5°C 49% 2.1 mph S3.4 kmh S 3.8 mph6.1 kmh 29.58 in1001.7 mb 0.00 in0.0 mm 0.00 in/hr0.0 mm/hr 0.00 in0.0 mm
10:10 PM 66.7°F19.3°C 47.0°F8.3°C 49% 2.1 mph S3.4 kmh S 3.1 mph5.0 kmh 29.58 in1001.7 mb 0.00 in0.0 mm 0.00 in/hr0.0 mm/hr 0.00 in0.0 mm
10:15 PM 66.9°F19.4°C 46.6°F8.1°C 48% 2.0 mph S3.2 kmh S 3.1 mph5.0 kmh 29.58 in1001.7 mb 0.00 in0.0 mm 0.00 in/hr0.0 mm/hr 0.00 in0.0 mm
10:20 PM 66.7°F19.3°C 46.4°F8.0°C 48% 1.8 mph S2.9 kmh S 3.1 mph5.0 kmh 29.58 in1001.7 mb 0.00 in0.0 mm 0.00 in/hr0.0 mm/hr 0.00 in0.0 mm
10:25 PM 66.6°F19.2°C 46.3°F7.9°C 48% 1.9 mph S3.1 kmh S 3.1 mph5.0 kmh 29.58 in1001.7 mb 0.00 in0.0 mm 0.00 in/hr0.0 mm/hr 0.00 in0.0 mm
10:30 PM 66.2°F19.0°C 46.0°F7.8°C 48% 1.9 mph SSW3.1 kmh SSW 3.1 mph5.0 kmh 29.58 in1001.7 mb 0.00 in0.0 mm 0.00 in/hr0.0 mm/hr 0.00 in0.0 mm
10:35 PM 66.0°F18.9°C 45.8°F7.7°C 48% 1.9 mph SSW3.1 kmh SSW 3.1 mph5.0 kmh 29.57 in1001.4 mb 0.00 in0.0 mm 0.00 in/hr0.0 mm/hr 0.00 in0.0 mm
10:40 PM 66.0°F18.9°C 46.3°F7.9°C 49% 1.9 mph S3.1 kmh S 2.2 mph3.5 kmh 29.58 in1001.7 mb 0.00 in0.0 mm 0.00 in/hr0.0 mm/hr 0.00 in0.0 mm
10:45 PM 66.0°F18.9°C 45.8°F7.7°C 48% 2.2 mph SSE3.5 kmh SSE 3.8 mph6.1 kmh 29.57 in1001.4 mb 0.00 in0.0 mm 0.00 in/hr0.0 mm/hr 0.00 in0.0 mm
10:50 PM 66.0°F18.9°C 45.8°F7.7°C 48% 1.9 mph S3.1 kmh S 3.8 mph6.1 kmh 29.57 in1001.4 mb 0.00 in0.0 mm 0.00 in/hr0.0 mm/hr 0.00 in0.0 mm
10:55 PM 65.8°F18.8°C 45.1°F7.3°C 47% 2.0 mph S3.2 kmh S 5.4 mph8.7 kmh 29.57 in1001.4 mb 0.00 in0.0 mm 0.00 in/hr0.0 mm/hr 0.00 in0.0 mm
11:00 PM 65.8°F18.8°C 45.1°F7.3°C 47% 2.6 mph S4.2 kmh S 5.4 mph8.7 kmh 29.57 in1001.4 mb 0.00 in0.0 mm 0.00 in/hr0.0 mm/hr 0.00 in0.0 mm
11:05 PM 65.8°F18.8°C 45.1°F7.3°C 47% 2.4 mph SSW3.9 kmh SSW 3.8 mph6.1 kmh 29.57 in1001.4 mb 0.00 in0.0 mm 0.00 in/hr0.0 mm/hr 0.00 in0.0 mm
11:10 PM 65.7°F18.7°C 44.9°F7.2°C 47% 2.0 mph SSW3.2 kmh SSW 3.8 mph6.1 kmh 29.57 in1001.4 mb 0.00 in0.0 mm 0.00 in/hr0.0 mm/hr 0.00 in0.0 mm
11:15 PM 65.7°F18.7°C 45.5°F7.5°C 48% 2.3 mph S3.7 kmh S 4.5 mph7.2 kmh 29.57 in1001.4 mb 0.00 in0.0 mm 0.00 in/hr0.0 mm/hr 0.00 in0.0 mm
11:20 PM 65.5°F18.6°C 44.7°F7.1°C 47% 2.9 mph S4.7 kmh S 4.5 mph7.2 kmh 29.57 in1001.4 mb 0.00 in0.0 mm 0.00 in/hr0.0 mm/hr 0.00 in0.0 mm
11:25 PM 65.5°F18.6°C 44.7°F7.1°C 47% 2.7 mph S4.3 kmh S 4.5 mph7.2 kmh 29.57 in1001.4 mb 0.00 in0.0 mm 0.00 in/hr0.0 mm/hr 0.00 in0.0 mm
11:30 PM 65.5°F18.6°C 44.7°F7.1°C 47% 2.4 mph S3.9 kmh S 3.8 mph6.1 kmh 29.57 in1001.4 mb 0.00 in0.0 mm 0.00 in/hr0.0 mm/hr 0.00 in0.0 mm
11:35 PM 65.5°F18.6°C 44.7°F7.1°C 47% 2.0 mph S3.2 kmh S 3.1 mph5.0 kmh 29.56 in1001.0 mb 0.00 in0.0 mm 0.00 in/hr0.0 mm/hr 0.00 in0.0 mm
11:40 PM 65.3°F18.5°C 44.6°F7.0°C 47% 1.9 mph S3.1 kmh S 3.8 mph6.1 kmh 29.56 in1001.0 mb 0.00 in0.0 mm 0.00 in/hr0.0 mm/hr 0.00 in0.0 mm
11:45 PM 65.1°F18.4°C 44.4°F6.9°C 47% 2.2 mph S3.5 kmh S 3.8 mph6.1 kmh 29.56 in1001.0 mb 0.00 in0.0 mm 0.00 in/hr0.0 mm/hr 0.00 in0.0 mm
11:50 PM 64.9°F18.3°C 44.8°F7.1°C 48% 2.1 mph S3.4 kmh S 3.8 mph6.1 kmh 29.55 in1000.7 mb 0.00 in0.0 mm 0.00 in/hr0.0 mm/hr 0.00 in0.0 mm
11:55 PM 64.6°F18.1°C 45.0°F7.2°C 49% 2.0 mph S3.2 kmh S 3.1 mph5.0 kmh 29.55 in1000.7 mb 0.00 in0.0 mm 0.00 in/hr0.0 mm/hr 0.00 in0.0 mm